| time (UTC) | temp C | wind direction | speed KPH | gust KPH | rain 1hr cm | rain 24hr cm | rain mn cm | humidity % | barometer mb |
| 20260906214535 | 22 | 9 | 11.3 | 22.5 | 0.00 | 0.00 | 0.00 | 81 | 1008.3 |
| 20260906213033 | 22 | 9 | 17.7 | 27.4 | 0.00 | 0.00 | 0.00 | 80 | 1008.5 |
| 20260906211530 | 22 | 9 | 9.7 | 24.1 | 0.00 | 0.00 | 0.00 | 81 | 1008.6 |
| 20260906210029 | 21 | 9 | 17.7 | 25.7 | 0.00 | 0.00 | 0.00 | 82 | 1008.7 |
| 20260906204527 | 21 | 9 | 20.9 | 27.4 | 0.00 | 0.00 | 0.00 | 83 | 1008.9 |
| 20260906203026 | 21 | 10 | 16.1 | 22.5 | 0.00 | 0.00 | 0.00 | 84 | 1009.3 |
| 20260906201526 | 20 | 9 | 14.5 | 20.9 | 0.00 | 0.00 | 0.00 | 85 | 1009.6 |
| 20260906200025 | 20 | 9 | 16.1 | 25.7 | 0.00 | 0.00 | 0.00 | 86 | 1009.5 |
| 20260906194526 | 20 | 9 | 17.7 | 30.6 | 0.00 | 0.00 | 0.00 | 86 | 1009.6 |
| 20260906193025 | 20 | 10 | 20.9 | 37.0 | 0.00 | 0.00 | 0.00 | 86 | 1009.1 |
| 20260906191524 | 20 | 9 | 22.5 | 33.8 | 0.00 | 0.00 | 0.00 | 84 | 1008.9 |
| 20260906190022 | 21 | 9 | 24.1 | 33.8 | 0.00 | 0.00 | 0.00 | 84 | 1009.0 |
| 20260906184519 | 21 | 9 | 19.3 | 30.6 | 0.00 | 0.00 | 0.00 | 85 | 1009.3 |
| 20260906183019 | 20 | 17 | 22.5 | 33.8 | 0.00 | 0.00 | 0.00 | 87 | 1009.4 |
| 20260906181514 | 20 | 360 | 19.3 | 25.7 | 0.00 | 0.00 | 0.00 | 89 | 1009.8 |
| 20260906180012 | 20 | 11 | 16.1 | 25.7 | 0.00 | 0.00 | 0.00 | 90 | 1010.0 |
| 20260906174512 | 19 | 257 | 16.1 | 22.5 | 0.00 | 0.00 | 0.00 | 91 | 1010.2 |
| 20260906173011 | 19 | 19 | 14.5 | 24.1 | 0.00 | 0.00 | 0.00 | 92 | 1010.3 |
| 20260906171509 | 18 | 15 | 17.7 | 25.7 | 0.00 | 0.00 | 0.00 | 93 | 1010.2 |
| 20260906170007 | 18 | 32 | 9.7 | 20.9 | 0.00 | 0.00 | 0.00 | 94 | 1010.5 |
| 20260906164510 | 18 | 36 | 17.7 | 22.5 | 0.00 | 0.00 | 0.00 | 94 | 1010.5 |
| 20260906163005 | 18 | 53 | 17.7 | 24.1 | 0.00 | 0.00 | 0.00 | 95 | 1010.3 |
| 20260906161504 | 18 | 23 | 16.1 | 24.1 | 0.00 | 0.00 | 0.00 | 95 | 1010.7 |
| 20260906160000 | 17 | 9 | 14.5 | 27.4 | 0.00 | 0.00 | 0.00 | 95 | 1010.4 |
| 20260906153059 | 17 | 360 | 22.5 | 29.0 | 0.00 | 0.00 | 0.00 | 95 | 1010.1 |
| 20260906151611 | 17 | 17 | 17.7 | 29.0 | 0.00 | 0.00 | 0.00 | 95 | 1010.2 |
| 20260906150104 | 17 | 10 | 22.5 | 32.2 | 0.00 | 0.00 | 0.00 | 95 | 1010.2 |
| 20260906143128 | 17 | 9 | 14.5 | 24.1 | 0.00 | 0.00 | 0.00 | 95 | 1009.9 |
| 20260906141557 | 17 | 17 | 12.9 | 22.5 | 0.00 | 0.00 | 0.00 | 95 | 1010.2 |
| 20260906140059 | 17 | 9 | 16.1 | 25.7 | 0.00 | 0.00 | 0.00 | 95 | 1009.7 |
| 20260906133057 | 16 | 9 | 20.9 | 30.6 | 0.00 | 0.00 | 0.00 | 94 | 1009.6 |
| 20260906131552 | 16 | 9 | 6.4 | 22.5 | 0.00 | 0.00 | 0.00 | 94 | 1010.4 |
| 20260906130052 | 16 | 9 | 16.1 | 27.4 | 0.00 | 0.00 | 0.00 | 94 | 1010.0 |
| 20260906123117 | 16 | 9 | 8.0 | 24.1 | 0.00 | 0.00 | 0.00 | 94 | 1010.1 |
| 20260906121551 | 16 | 9 | 17.7 | 27.4 | 0.00 | 0.00 | 0.00 | 94 | 1009.8 |
| 20260906120047 | 16 | 9 | 16.1 | 27.4 | 0.00 | 0.00 | 0.00 | 94 | 1009.9 |
| 20260906113045 | 16 | 10 | 12.9 | 17.7 | 0.00 | 0.00 | 0.00 | 93 | 1010.7 |
| 20260906111545 | 16 | 9 | 17.7 | 22.5 | 0.00 | 0.00 | 0.00 | 93 | 1010.5 |
| 20260906110042 | 16 | 17 | 6.4 | 12.9 | 0.00 | 0.00 | 0.00 | 93 | 1011.8 |
| 20260906103041 | 17 | 15 | 6.4 | 19.3 | 0.00 | 0.00 | 0.00 | 93 | 1012.1 |
| 20260906101543 | 17 | 17 | 11.3 | 16.1 | 0.00 | 0.00 | 0.00 | 93 | 1012.1 |
| 20260906100039 | 16 | 16 | 4.8 | 14.5 | 0.00 | 0.00 | 0.00 | 93 | 1011.9 |
| 20260906093038 | 16 | 17 | 6.4 | 12.9 | 0.00 | 0.00 | 0.00 | 92 | 1010.7 |
| 20260906091543 | 16 | 9 | 9.7 | 16.1 | 0.00 | 0.00 | 0.00 | 92 | 1010.6 |
| 20260906090033 | 16 | 9 | 12.9 | 20.9 | 0.00 | 0.00 | 0.00 | 92 | 1010.5 |
| 20260906083034 | 16 | 9 | 11.3 | 17.7 | 0.00 | 0.00 | 0.00 | 91 | 1010.7 |
| 20260906081527 | 16 | 9 | 12.9 | 16.1 | 0.00 | 0.00 | 0.00 | 91 | 1010.7 |
| 20260906080030 | 17 | 9 | 8.0 | 16.1 | 0.00 | 0.00 | 0.00 | 90 | 1010.8 |
| 20260906073022 | 17 | 9 | 11.3 | 17.7 | 0.00 | 0.00 | 0.00 | 90 | 1010.9 |
| 20260906071518 | 17 | 9 | 11.3 | 16.1 | 0.00 | 0.00 | 0.00 | 89 | 1011.0 |
| 20260906070018 | 17 | 9 | 11.3 | 14.5 | 0.00 | 0.00 | 0.00 | 88 | 1011.1 |
| 20260906063018 | 17 | 9 | 12.9 | 16.1 | 0.00 | 0.00 | 0.00 | 87 | 1011.1 |
| 20260906061518 | 18 | 9 | 9.7 | 19.3 | 0.00 | 0.00 | 0.00 | 86 | 1011.2 |
| 20260906060017 | 18 | 9 | 11.3 | 19.3 | 0.00 | 0.00 | 0.00 | 86 | 1011.3 |
| 20260906053016 | 18 | 34 | 6.4 | 19.3 | 0.00 | 0.00 | 0.00 | 84 | 1011.5 |
| 20260906051516 | 18 | 29 | 9.7 | 16.1 | 0.00 | 0.00 | 0.00 | 83 | 1011.6 |
| 20260906050016 | 19 | 34 | 11.3 | 19.3 | 0.00 | 0.00 | 0.00 | 82 | 1011.8 |
| 20260906043027 | 20 | 36 | 14.5 | 22.5 | 0.00 | 0.00 | 0.00 | 81 | 1012.2 |
| 20260906041618 | 20 | 46 | 14.5 | 20.9 | 0.00 | 0.00 | 0.00 | 80 | 1012.0 |
| 20260906040015 | 20 | 36 | 14.5 | 20.9 | 0.00 | 0.00 | 0.00 | 79 | 1012.0 |
| 20260906033020 | 20 | 16 | 17.7 | 25.7 | 0.00 | 0.00 | 0.00 | 76 | 1012.2 |
| 20260906031515 | 21 | 19 | 16.1 | 24.1 | 0.00 | 0.00 | 0.00 | 76 | 1012.2 |
| 20260906030018 | 21 | 14 | 16.1 | 27.4 | 0.00 | 0.00 | 0.00 | 76 | 1012.2 |
| 20260906023008 | 21 | 28 | 16.1 | 22.5 | 0.00 | 0.00 | 0.00 | 74 | 1011.7 |
| 20260906021507 | 21 | 10 | 14.5 | 25.7 | 0.00 | 0.00 | 0.00 | 73 | 1011.5 |
| 20260906020009 | 21 | 15 | 16.1 | 29.0 | 0.00 | 0.00 | 0.00 | 73 | 1011.3 |
| 20260906013002 | 21 | 9 | 19.3 | 25.7 | 0.00 | 0.00 | 0.00 | 71 | 1010.9 |
| 20260906011702 | 22 | 9 | 17.7 | 27.4 | 0.00 | 0.00 | 0.00 | 69 | 1010.7 |
| 20260906010059 | 22 | 9 | 20.9 | 32.2 | 0.00 | 0.00 | 0.00 | 68 | 1010.4 |
| 20260906003102 | 23 | 19 | 16.1 | 29.0 | 0.00 | 0.00 | 0.00 | 65 | 1010.1 |
| 20260906001553 | 23 | 18 | 17.7 | 35.4 | 0.00 | 0.00 | 0.00 | 64 | 1009.7 |
| 20260906000057 | 24 | 17 | 25.7 | 40.2 | 0.00 | 0.00 | 0.00 | 62 | 1009.6 |
| 20260905233052 | 26 | 360 | 11.3 | 25.7 | 0.00 | 0.00 | 0.00 | 60 | 1009.2 |
| 20260905231553 | 26 | 17 | 16.1 | 29.0 | 0.00 | 0.00 | 0.00 | 60 | 1009.2 |
| 20260905230054 | 26 | 20 | 12.9 | 25.7 | 0.00 | 0.00 | 0.00 | 59 | 1009.1 |
| 20260905223049 | 26 | 19 | 19.3 | 29.0 | 0.00 | 0.00 | 0.00 | 59 | 1009.0 |
| 20260905221548 | 26 | 17 | 17.7 | 27.4 | 0.00 | 0.00 | 0.00 | 59 | 1009.1 |
| 20260905220047 | 27 | 14 | 14.5 | 27.4 | 0.00 | 0.00 | 0.00 | 59 | 1009.0 |